sensor_id;sensor_type;location;lat;lon;timestamp;P1;durP1;ratioP1;P2;durP2;ratioP2
6438;SDS011;3252;52.540;13.290;2023-01-10T00:00:33;4.13;;;2.13;;
6438;SDS011;3252;52.540;13.290;2023-01-10T00:03:08;3.87;;;2.33;;
6438;SDS011;3252;52.540;13.290;2023-01-10T00:05:25;4.77;;;2.30;;
6438;SDS011;3252;52.540;13.290;2023-01-10T00:07:36;4.77;;;2.20;;
6438;SDS011;3252;52.540;13.290;2023-01-10T00:09:39;3.07;;;2.03;;
6438;SDS011;3252;52.540;13.290;2023-01-10T00:11:43;4.10;;;2.57;;
6438;SDS011;3252;52.540;13.290;2023-01-10T00:14:06;3.33;;;2.40;;
6438;SDS011;3252;52.540;13.290;2023-01-10T00:16:17;4.87;;;2.57;;
6438;SDS011;3252;52.540;13.290;2023-01-10T00:18:53;4.00;;;2.10;;
6438;SDS011;3252;52.540;13.290;2023-01-10T00:21:22;4.33;;;2.13;;
6438;SDS011;3252;52.540;13.290;2023-01-10T00:24:05;4.63;;;2.23;;
6438;SDS011;3252;52.540;13.290;2023-01-10T00:29:40;3.93;;;2.30;;
6438;SDS011;3252;52.540;13.290;2023-01-10T00:35:27;3.33;;;2.13;;
6438;SDS011;3252;52.540;13.290;2023-01-10T00:38:23;3.27;;;1.97;;
6438;SDS011;3252;52.540;13.290;2023-01-10T00:40:49;3.60;;;2.40;;
6438;SDS011;3252;52.540;13.290;2023-01-10T00:43:33;5.20;;;2.67;;
6438;SDS011;3252;52.540;13.290;2023-01-10T00:46:20;4.00;;;2.70;;
6438;SDS011;3252;52.540;13.290;2023-01-10T00:48:27;6.20;;;2.87;;
6438;SDS011;3252;52.540;13.290;2023-01-10T00:50:36;5.23;;;2.83;;
6438;SDS011;3252;52.540;13.290;2023-01-10T00:52:44;5.23;;;2.37;;
6438;SDS011;3252;52.540;13.290;2023-01-10T00:55:21;4.13;;;2.70;;
6438;SDS011;3252;52.540;13.290;2023-01-10T00:57:24;4.93;;;2.60;;
6438;SDS011;3252;52.540;13.290;2023-01-10T00:59:27;5.07;;;2.40;;
6438;SDS011;3252;52.540;13.290;2023-01-10T01:01:33;4.20;;;2.67;;
6438;SDS011;3252;52.540;13.290;2023-01-10T01:03:38;3.33;;;2.60;;
6438;SDS011;3252;52.540;13.290;2023-01-10T01:05:48;3.70;;;2.10;;
6438;SDS011;3252;52.540;13.290;2023-01-10T01:10:08;6.10;;;2.27;;
6438;SDS011;3252;52.540;13.290;2023-01-10T01:12:37;5.57;;;2.40;;
6438;SDS011;3252;52.540;13.290;2023-01-10T01:14:40;3.20;;;2.43;;
6438;SDS011;3252;52.540;13.290;2023-01-10T01:16:46;4.40;;;2.53;;
6438;SDS011;3252;52.540;13.290;2023-01-10T01:19:00;3.43;;;2.40;;
6438;SDS011;3252;52.540;13.290;2023-01-10T01:21:06;4.37;;;2.23;;
6438;SDS011;3252;52.540;13.290;2023-01-10T01:23:14;4.93;;;2.60;;
6438;SDS011;3252;52.540;13.290;2023-01-10T01:25:23;3.90;;;2.20;;
6438;SDS011;3252;52.540;13.290;2023-01-10T01:28:14;5.33;;;2.40;;
6438;SDS011;3252;52.540;13.290;2023-01-10T01:30:36;4.37;;;2.50;;
6438;SDS011;3252;52.540;13.290;2023-01-10T01:32:46;4.10;;;2.50;;
6438;SDS011;3252;52.540;13.290;2023-01-10T01:35:00;6.13;;;2.40;;
6438;SDS011;3252;52.540;13.290;2023-01-10T01:37:03;3.93;;;2.40;;
6438;SDS011;3252;52.540;13.290;2023-01-10T01:39:55;3.97;;;2.50;;
6438;SDS011;3252;52.540;13.290;2023-01-10T01:42:03;3.93;;;2.43;;
6438;SDS011;3252;52.540;13.290;2023-01-10T01:44:13;5.57;;;2.50;;
6438;SDS011;3252;52.540;13.290;2023-01-10T01:46:25;5.53;;;2.70;;
6438;SDS011;3252;52.540;13.290;2023-01-10T01:48:32;4.63;;;2.60;;
6438;SDS011;3252;52.540;13.290;2023-01-10T01:50:40;7.03;;;2.80;;
6438;SDS011;3252;52.540;13.290;2023-01-10T01:52:52;4.57;;;2.80;;
6438;SDS011;3252;52.540;13.290;2023-01-10T01:54:59;5.50;;;2.80;;
6438;SDS011;3252;52.540;13.290;2023-01-10T01:57:06;4.87;;;2.83;;
6438;SDS011;3252;52.540;13.290;2023-01-10T01:59:13;4.77;;;2.50;;
6438;SDS011;3252;52.540;13.290;2023-01-10T02:01:20;6.53;;;2.90;;
6438;SDS011;3252;52.540;13.290;2023-01-10T02:03:25;5.77;;;2.80;;
6438;SDS011;3252;52.540;13.290;2023-01-10T02:05:35;5.67;;;3.00;;
6438;SDS011;3252;52.540;13.290;2023-01-10T02:08:25;5.30;;;3.30;;
6438;SDS011;3252;52.540;13.290;2023-01-10T02:10:31;5.73;;;3.20;;
6438;SDS011;3252;52.540;13.290;2023-01-10T02:12:53;5.37;;;3.37;;
6438;SDS011;3252;52.540;13.290;2023-01-10T02:15:17;5.57;;;3.17;;
6438;SDS011;3252;52.540;13.290;2023-01-10T02:17:25;6.83;;;3.80;;
6438;SDS011;3252;52.540;13.290;2023-01-10T02:19:28;8.03;;;3.60;;
6438;SDS011;3252;52.540;13.290;2023-01-10T02:27:17;6.83;;;3.60;;
6438;SDS011;3252;52.540;13.290;2023-01-10T02:32:25;6.20;;;3.40;;
6438;SDS011;3252;52.540;13.290;2023-01-10T02:34:42;6.60;;;3.00;;
6438;SDS011;3252;52.540;13.290;2023-01-10T02:37:07;6.80;;;2.93;;
6438;SDS011;3252;52.540;13.290;2023-01-10T02:39:42;5.00;;;3.00;;
6438;SDS011;3252;52.540;13.290;2023-01-10T02:42:40;6.63;;;2.90;;
6438;SDS011;3252;52.540;13.290;2023-01-10T02:45:20;4.80;;;2.37;;
6438;SDS011;3252;52.540;13.290;2023-01-10T02:47:34;8.07;;;2.63;;
6438;SDS011;3252;52.540;13.290;2023-01-10T02:49:41;5.67;;;2.70;;
6438;SDS011;3252;52.540;13.290;2023-01-10T02:51:47;4.73;;;2.33;;
6438;SDS011;3252;52.540;13.290;2023-01-10T02:53:51;5.20;;;2.87;;
6438;SDS011;3252;52.540;13.290;2023-01-10T02:56:14;4.20;;;2.70;;
6438;SDS011;3252;52.540;13.290;2023-01-10T02:58:50;5.77;;;2.90;;
6438;SDS011;3252;52.540;13.290;2023-01-10T03:01:05;7.33;;;3.20;;
6438;SDS011;3252;52.540;13.290;2023-01-10T03:03:24;5.90;;;3.23;;
6438;SDS011;3252;52.540;13.290;2023-01-10T03:05:41;4.77;;;2.80;;
6438;SDS011;3252;52.540;13.290;2023-01-10T03:07:55;7.80;;;3.20;;
6438;SDS011;3252;52.540;13.290;2023-01-10T03:10:02;7.43;;;2.90;;
6438;SDS011;3252;52.540;13.290;2023-01-10T03:12:09;6.83;;;3.30;;
6438;SDS011;3252;52.540;13.290;2023-01-10T03:14:18;6.80;;;3.33;;
6438;SDS011;3252;52.540;13.290;2023-01-10T03:16:26;11.77;;;3.63;;
6438;SDS011;3252;52.540;13.290;2023-01-10T03:24:58;6.20;;;3.23;;
6438;SDS011;3252;52.540;13.290;2023-01-10T03:27:05;7.23;;;3.33;;
6438;SDS011;3252;52.540;13.290;2023-01-10T03:29:11;7.73;;;3.40;;
6438;SDS011;3252;52.540;13.290;2023-01-10T03:31:46;10.07;;;3.40;;
6438;SDS011;3252;52.540;13.290;2023-01-10T03:34:03;8.70;;;3.53;;
6438;SDS011;3252;52.540;13.290;2023-01-10T03:42:42;9.97;;;3.60;;
6438;SDS011;3252;52.540;13.290;2023-01-10T03:45:10;11.13;;;3.87;;
6438;SDS011;3252;52.540;13.290;2023-01-10T03:50:50;10.77;;;4.20;;
6438;SDS011;3252;52.540;13.290;2023-01-10T03:56:58;9.57;;;3.70;;
6438;SDS011;3252;52.540;13.290;2023-01-10T04:00:11;8.67;;;3.63;;
6438;SDS011;3252;52.540;13.290;2023-01-10T04:02:51;8.30;;;3.77;;
6438;SDS011;3252;52.540;13.290;2023-01-10T04:05:06;7.30;;;3.80;;
6438;SDS011;3252;52.540;13.290;2023-01-10T04:07:44;11.03;;;4.43;;
6438;SDS011;3252;52.540;13.290;2023-01-10T04:10:06;11.40;;;4.70;;
6438;SDS011;3252;52.540;13.290;2023-01-10T04:12:33;14.47;;;4.70;;
6438;SDS011;3252;52.540;13.290;2023-01-10T04:15:04;9.97;;;3.97;;
6438;SDS011;3252;52.540;13.290;2023-01-10T04:17:25;10.67;;;4.57;;
6438;SDS011;3252;52.540;13.290;2023-01-10T04:19:54;15.33;;;4.60;;
6438;SDS011;3252;52.540;13.290;2023-01-10T04:25:08;11.67;;;4.97;;
6438;SDS011;3252;52.540;13.290;2023-01-10T04:27:18;13.10;;;4.63;;
6438;SDS011;3252;52.540;13.290;2023-01-10T04:29:35;9.50;;;5.10;;
6438;SDS011;3252;52.540;13.290;2023-01-10T04:32:24;16.37;;;5.17;;
6438;SDS011;3252;52.540;13.290;2023-01-10T04:34:35;14.87;;;5.13;;
6438;SDS011;3252;52.540;13.290;2023-01-10T04:37:01;13.70;;;5.33;;
6438;SDS011;3252;52.540;13.290;2023-01-10T04:39:13;16.23;;;5.47;;
6438;SDS011;3252;52.540;13.290;2023-01-10T04:41:50;13.57;;;5.67;;
6438;SDS011;3252;52.540;13.290;2023-01-10T04:44:03;16.00;;;5.43;;
6438;SDS011;3252;52.540;13.290;2023-01-10T04:46:08;14.10;;;5.57;;
6438;SDS011;3252;52.540;13.290;2023-01-10T04:48:41;17.40;;;6.10;;
6438;SDS011;3252;52.540;13.290;2023-01-10T04:50:51;16.07;;;5.53;;
6438;SDS011;3252;52.540;13.290;2023-01-10T04:53:26;18.97;;;5.77;;
6438;SDS011;3252;52.540;13.290;2023-01-10T04:55:33;16.67;;;6.07;;
6438;SDS011;3252;52.540;13.290;2023-01-10T05:00:30;14.47;;;5.87;;
6438;SDS011;3252;52.540;13.290;2023-01-10T05:02:41;15.93;;;5.97;;
6438;SDS011;3252;52.540;13.290;2023-01-10T05:05:03;17.47;;;5.67;;
6438;SDS011;3252;52.540;13.290;2023-01-10T05:07:06;18.93;;;5.70;;
6438;SDS011;3252;52.540;13.290;2023-01-10T05:09:18;16.10;;;6.13;;
6438;SDS011;3252;52.540;13.290;2023-01-10T05:11:23;17.30;;;5.80;;
6438;SDS011;3252;52.540;13.290;2023-01-10T05:13:27;17.67;;;5.63;;
6438;SDS011;3252;52.540;13.290;2023-01-10T05:15:33;19.07;;;5.17;;
6438;SDS011;3252;52.540;13.290;2023-01-10T05:17:42;19.90;;;5.53;;
6438;SDS011;3252;52.540;13.290;2023-01-10T05:19:51;16.20;;;5.23;;
6438;SDS011;3252;52.540;13.290;2023-01-10T05:22:07;18.17;;;6.07;;
6438;SDS011;3252;52.540;13.290;2023-01-10T05:24:16;16.90;;;6.00;;
6438;SDS011;3252;52.540;13.290;2023-01-10T05:26:22;17.37;;;7.27;;
6438;SDS011;3252;52.540;13.290;2023-01-10T05:28:33;34.60;;;20.27;;
6438;SDS011;3252;52.540;13.290;2023-01-10T05:30:48;24.23;;;11.13;;
6438;SDS011;3252;52.540;13.290;2023-01-10T05:32:53;21.50;;;5.07;;
6438;SDS011;3252;52.540;13.290;2023-01-10T05:34:58;17.60;;;5.93;;
6438;SDS011;3252;52.540;13.290;2023-01-10T05:37:15;15.97;;;5.30;;
6438;SDS011;3252;52.540;13.290;2023-01-10T05:39:37;20.83;;;5.70;;
6438;SDS011;3252;52.540;13.290;2023-01-10T05:41:44;16.10;;;5.80;;
6438;SDS011;3252;52.540;13.290;2023-01-10T05:43:48;13.40;;;5.33;;
6438;SDS011;3252;52.540;13.290;2023-01-10T05:45:58;19.23;;;5.97;;
6438;SDS011;3252;52.540;13.290;2023-01-10T05:48:10;16.20;;;5.70;;
6438;SDS011;3252;52.540;13.290;2023-01-10T05:50:14;18.57;;;5.93;;
6438;SDS011;3252;52.540;13.290;2023-01-10T05:52:28;22.73;;;6.10;;
6438;SDS011;3252;52.540;13.290;2023-01-10T05:54:32;18.43;;;6.77;;
6438;SDS011;3252;52.540;13.290;2023-01-10T05:56:36;21.20;;;9.83;;
6438;SDS011;3252;52.540;13.290;2023-01-10T05:58:43;19.90;;;5.97;;
6438;SDS011;3252;52.540;13.290;2023-01-10T06:00:48;18.67;;;5.60;;
6438;SDS011;3252;52.540;13.290;2023-01-10T06:02:53;24.07;;;6.50;;
6438;SDS011;3252;52.540;13.290;2023-01-10T06:04:56;18.40;;;5.87;;
6438;SDS011;3252;52.540;13.290;2023-01-10T06:07:02;19.63;;;6.40;;
6438;SDS011;3252;52.540;13.290;2023-01-10T06:09:09;17.10;;;6.10;;
6438;SDS011;3252;52.540;13.290;2023-01-10T06:11:16;20.13;;;6.07;;
6438;SDS011;3252;52.540;13.290;2023-01-10T06:13:20;18.43;;;6.07;;
6438;SDS011;3252;52.540;13.290;2023-01-10T06:15:25;19.43;;;6.07;;
6438;SDS011;3252;52.540;13.290;2023-01-10T06:17:31;19.40;;;6.17;;
6438;SDS011;3252;52.540;13.290;2023-01-10T06:19:33;15.30;;;5.73;;
6438;SDS011;3252;52.540;13.290;2023-01-10T06:21:42;18.13;;;5.83;;
6438;SDS011;3252;52.540;13.290;2023-01-10T06:23:48;19.43;;;6.33;;
6438;SDS011;3252;52.540;13.290;2023-01-10T06:26:04;19.00;;;6.20;;
6438;SDS011;3252;52.540;13.290;2023-01-10T06:28:11;20.33;;;6.67;;
6438;SDS011;3252;52.540;13.290;2023-01-10T06:30:22;23.07;;;6.60;;
6438;SDS011;3252;52.540;13.290;2023-01-10T06:32:28;20.47;;;6.53;;
6438;SDS011;3252;52.540;13.290;2023-01-10T06:34:33;24.70;;;6.40;;
6438;SDS011;3252;52.540;13.290;2023-01-10T06:36:35;20.77;;;6.43;;
6438;SDS011;3252;52.540;13.290;2023-01-10T06:38:41;17.17;;;5.80;;
6438;SDS011;3252;52.540;13.290;2023-01-10T06:40:43;17.90;;;6.13;;
6438;SDS011;3252;52.540;13.290;2023-01-10T06:42:47;21.23;;;5.87;;
6438;SDS011;3252;52.540;13.290;2023-01-10T06:44:50;21.43;;;6.23;;
6438;SDS011;3252;52.540;13.290;2023-01-10T06:46:55;19.80;;;6.10;;
6438;SDS011;3252;52.540;13.290;2023-01-10T06:48:59;17.30;;;6.03;;
6438;SDS011;3252;52.540;13.290;2023-01-10T06:51:04;26.57;;;7.97;;
6438;SDS011;3252;52.540;13.290;2023-01-10T06:53:07;16.80;;;6.20;;
6438;SDS011;3252;52.540;13.290;2023-01-10T06:55:10;18.90;;;6.93;;
6438;SDS011;3252;52.540;13.290;2023-01-10T06:57:16;22.20;;;6.87;;
6438;SDS011;3252;52.540;13.290;2023-01-10T06:59:25;18.87;;;6.40;;
6438;SDS011;3252;52.540;13.290;2023-01-10T07:01:31;23.60;;;6.27;;
6438;SDS011;3252;52.540;13.290;2023-01-10T07:03:37;21.47;;;6.93;;
6438;SDS011;3252;52.540;13.290;2023-01-10T07:05:45;21.83;;;6.27;;
6438;SDS011;3252;52.540;13.290;2023-01-10T07:08:10;17.97;;;6.10;;
6438;SDS011;3252;52.540;13.290;2023-01-10T07:10:15;22.53;;;6.37;;
6438;SDS011;3252;52.540;13.290;2023-01-10T07:12:23;15.57;;;6.57;;
6438;SDS011;3252;52.540;13.290;2023-01-10T07:14:30;25.17;;;7.30;;
6438;SDS011;3252;52.540;13.290;2023-01-10T07:16:35;21.37;;;6.53;;
6438;SDS011;3252;52.540;13.290;2023-01-10T07:18:37;23.67;;;6.80;;
6438;SDS011;3252;52.540;13.290;2023-01-10T07:20:40;27.73;;;7.17;;
6438;SDS011;3252;52.540;13.290;2023-01-10T07:22:42;22.73;;;7.70;;
6438;SDS011;3252;52.540;13.290;2023-01-10T07:24:45;22.13;;;7.87;;
6438;SDS011;3252;52.540;13.290;2023-01-10T07:26:47;21.70;;;8.53;;
6438;SDS011;3252;52.540;13.290;2023-01-10T07:28:49;20.70;;;7.50;;
6438;SDS011;3252;52.540;13.290;2023-01-10T07:30:53;19.40;;;9.00;;
6438;SDS011;3252;52.540;13.290;2023-01-10T07:32:59;21.77;;;7.50;;
6438;SDS011;3252;52.540;13.290;2023-01-10T07:35:03;21.57;;;7.80;;
6438;SDS011;3252;52.540;13.290;2023-01-10T07:37:08;26.20;;;8.00;;
6438;SDS011;3252;52.540;13.290;2023-01-10T07:41:39;22.83;;;8.30;;
6438;SDS011;3252;52.540;13.290;2023-01-10T07:44:32;18.60;;;7.50;;
6438;SDS011;3252;52.540;13.290;2023-01-10T07:46:41;17.90;;;7.77;;
6438;SDS011;3252;52.540;13.290;2023-01-10T07:48:44;21.13;;;7.70;;
6438;SDS011;3252;52.540;13.290;2023-01-10T07:50:48;26.97;;;8.33;;
6438;SDS011;3252;52.540;13.290;2023-01-10T07:53:22;23.70;;;8.13;;
6438;SDS011;3252;52.540;13.290;2023-01-10T07:55:28;18.93;;;8.13;;
6438;SDS011;3252;52.540;13.290;2023-01-10T07:57:34;16.50;;;7.33;;
6438;SDS011;3252;52.540;13.290;2023-01-10T07:59:36;17.77;;;7.50;;
6438;SDS011;3252;52.540;13.290;2023-01-10T08:01:38;20.47;;;8.70;;
6438;SDS011;3252;52.540;13.290;2023-01-10T08:03:42;18.07;;;8.00;;
6438;SDS011;3252;52.540;13.290;2023-01-10T08:05:45;19.70;;;7.93;;
6438;SDS011;3252;52.540;13.290;2023-01-10T08:07:48;17.47;;;7.50;;
6438;SDS011;3252;52.540;13.290;2023-01-10T08:09:51;18.53;;;7.73;;
6438;SDS011;3252;52.540;13.290;2023-01-10T08:11:54;17.93;;;7.53;;
6438;SDS011;3252;52.540;13.290;2023-01-10T08:13:56;20.80;;;7.77;;
6438;SDS011;3252;52.540;13.290;2023-01-10T08:15:58;18.57;;;8.50;;
6438;SDS011;3252;52.540;13.290;2023-01-10T08:18:04;16.67;;;7.90;;
6438;SDS011;3252;52.540;13.290;2023-01-10T08:20:08;19.93;;;8.10;;
6438;SDS011;3252;52.540;13.290;2023-01-10T08:22:11;18.50;;;8.03;;
6438;SDS011;3252;52.540;13.290;2023-01-10T08:24:13;19.87;;;8.33;;
6438;SDS011;3252;52.540;13.290;2023-01-10T08:26:15;23.77;;;7.97;;
6438;SDS011;3252;52.540;13.290;2023-01-10T08:28:18;19.37;;;8.10;;
6438;SDS011;3252;52.540;13.290;2023-01-10T08:30:20;19.33;;;7.73;;
6438;SDS011;3252;52.540;13.290;2023-01-10T08:32:23;21.40;;;7.87;;
6438;SDS011;3252;52.540;13.290;2023-01-10T08:34:25;20.00;;;8.50;;
6438;SDS011;3252;52.540;13.290;2023-01-10T08:36:29;21.37;;;9.97;;
6438;SDS011;3252;52.540;13.290;2023-01-10T08:38:31;18.77;;;7.87;;
6438;SDS011;3252;52.540;13.290;2023-01-10T08:40:33;18.23;;;8.10;;
6438;SDS011;3252;52.540;13.290;2023-01-10T08:42:35;17.53;;;8.47;;
6438;SDS011;3252;52.540;13.290;2023-01-10T08:44:37;21.00;;;7.70;;
6438;SDS011;3252;52.540;13.290;2023-01-10T08:46:39;20.93;;;8.40;;
6438;SDS011;3252;52.540;13.290;2023-01-10T08:48:42;18.57;;;8.10;;
6438;SDS011;3252;52.540;13.290;2023-01-10T08:50:44;18.90;;;8.47;;
6438;SDS011;3252;52.540;13.290;2023-01-10T08:52:47;18.67;;;8.47;;
6438;SDS011;3252;52.540;13.290;2023-01-10T08:54:50;17.63;;;7.90;;
6438;SDS011;3252;52.540;13.290;2023-01-10T08:56:52;18.23;;;6.70;;
6438;SDS011;3252;52.540;13.290;2023-01-10T08:58:54;16.33;;;6.57;;
6438;SDS011;3252;52.540;13.290;2023-01-10T09:00:57;17.80;;;7.70;;
6438;SDS011;3252;52.540;13.290;2023-01-10T09:02:59;12.13;;;6.70;;
6438;SDS011;3252;52.540;13.290;2023-01-10T09:05:01;15.93;;;6.70;;
6438;SDS011;3252;52.540;13.290;2023-01-10T09:07:03;16.17;;;7.23;;
6438;SDS011;3252;52.540;13.290;2023-01-10T09:09:06;19.77;;;7.93;;
6438;SDS011;3252;52.540;13.290;2023-01-10T09:11:09;13.63;;;6.57;;
6438;SDS011;3252;52.540;13.290;2023-01-10T09:13:11;18.83;;;6.67;;
6438;SDS011;3252;52.540;13.290;2023-01-10T09:15:13;18.13;;;6.97;;
6438;SDS011;3252;52.540;13.290;2023-01-10T09:17:16;18.67;;;6.77;;
6438;SDS011;3252;52.540;13.290;2023-01-10T09:19:18;17.47;;;6.87;;
6438;SDS011;3252;52.540;13.290;2023-01-10T09:21:21;11.63;;;5.63;;
6438;SDS011;3252;52.540;13.290;2023-01-10T09:23:23;16.90;;;6.20;;
6438;SDS011;3252;52.540;13.290;2023-01-10T09:25:26;13.43;;;6.47;;
6438;SDS011;3252;52.540;13.290;2023-01-10T09:27:28;16.37;;;6.43;;
6438;SDS011;3252;52.540;13.290;2023-01-10T09:29:30;15.17;;;6.30;;
6438;SDS011;3252;52.540;13.290;2023-01-10T09:31:32;19.67;;;6.60;;
6438;SDS011;3252;52.540;13.290;2023-01-10T09:33:34;22.30;;;7.10;;
6438;SDS011;3252;52.540;13.290;2023-01-10T09:35:37;14.23;;;6.50;;
6438;SDS011;3252;52.540;13.290;2023-01-10T09:37:40;15.93;;;6.90;;
6438;SDS011;3252;52.540;13.290;2023-01-10T09:39:43;18.43;;;6.77;;
6438;SDS011;3252;52.540;13.290;2023-01-10T09:41:50;18.83;;;8.73;;
6438;SDS011;3252;52.540;13.290;2023-01-10T09:44:03;15.07;;;6.77;;
6438;SDS011;3252;52.540;13.290;2023-01-10T09:46:07;16.50;;;7.83;;
6438;SDS011;3252;52.540;13.290;2023-01-10T09:48:17;18.80;;;8.67;;
6438;SDS011;3252;52.540;13.290;2023-01-10T09:50:27;20.57;;;7.73;;
6438;SDS011;3252;52.540;13.290;2023-01-10T09:52:36;17.83;;;6.73;;
6438;SDS011;3252;52.540;13.290;2023-01-10T09:54:41;17.10;;;6.83;;
6438;SDS011;3252;52.540;13.290;2023-01-10T09:56:44;15.07;;;6.00;;
6438;SDS011;3252;52.540;13.290;2023-01-10T09:58:50;16.83;;;5.90;;
6438;SDS011;3252;52.540;13.290;2023-01-10T10:00:53;19.40;;;7.33;;
6438;SDS011;3252;52.540;13.290;2023-01-10T10:02:58;13.73;;;6.57;;
6438;SDS011;3252;52.540;13.290;2023-01-10T10:05:06;19.00;;;7.27;;
6438;SDS011;3252;52.540;13.290;2023-01-10T10:07:13;17.10;;;7.30;;
6438;SDS011;3252;52.540;13.290;2023-01-10T10:09:18;18.77;;;7.17;;
6438;SDS011;3252;52.540;13.290;2023-01-10T10:11:30;20.30;;;6.43;;
6438;SDS011;3252;52.540;13.290;2023-01-10T10:13:43;15.47;;;6.20;;
6438;SDS011;3252;52.540;13.290;2023-01-10T10:15:52;15.13;;;6.33;;
6438;SDS011;3252;52.540;13.290;2023-01-10T10:18:03;15.10;;;5.77;;
6438;SDS011;3252;52.540;13.290;2023-01-10T10:20:27;21.77;;;6.57;;
6438;SDS011;3252;52.540;13.290;2023-01-10T10:22:49;16.50;;;6.60;;
6438;SDS011;3252;52.540;13.290;2023-01-10T10:25:04;19.20;;;6.30;;
6438;SDS011;3252;52.540;13.290;2023-01-10T10:27:18;29.33;;;12.17;;
6438;SDS011;3252;52.540;13.290;2023-01-10T10:29:34;22.53;;;7.77;;
6438;SDS011;3252;52.540;13.290;2023-01-10T10:31:55;20.63;;;5.60;;
6438;SDS011;3252;52.540;13.290;2023-01-10T10:34:13;16.53;;;5.50;;
6438;SDS011;3252;52.540;13.290;2023-01-10T10:36:23;20.47;;;5.67;;
6438;SDS011;3252;52.540;13.290;2023-01-10T10:38:30;18.50;;;5.90;;
6438;SDS011;3252;52.540;13.290;2023-01-10T10:40:37;18.43;;;6.13;;
6438;SDS011;3252;52.540;13.290;2023-01-10T10:42:43;17.73;;;5.33;;
6438;SDS011;3252;52.540;13.290;2023-01-10T10:44:49;16.53;;;5.10;;
6438;SDS011;3252;52.540;13.290;2023-01-10T10:46:57;15.50;;;5.10;;
6438;SDS011;3252;52.540;13.290;2023-01-10T10:49:00;18.77;;;5.73;;
6438;SDS011;3252;52.540;13.290;2023-01-10T10:51:08;15.97;;;4.93;;
6438;SDS011;3252;52.540;13.290;2023-01-10T10:53:14;25.60;;;5.47;;
6438;SDS011;3252;52.540;13.290;2023-01-10T10:55:20;19.90;;;5.23;;
6438;SDS011;3252;52.540;13.290;2023-01-10T10:57:29;18.17;;;4.90;;
6438;SDS011;3252;52.540;13.290;2023-01-10T10:59:33;19.00;;;4.73;;
6438;SDS011;3252;52.540;13.290;2023-01-10T11:01:35;17.17;;;5.20;;
6438;SDS011;3252;52.540;13.290;2023-01-10T11:03:41;19.63;;;4.60;;
6438;SDS011;3252;52.540;13.290;2023-01-10T11:05:47;21.80;;;5.63;;
6438;SDS011;3252;52.540;13.290;2023-01-10T11:07:50;17.80;;;4.43;;
6438;SDS011;3252;52.540;13.290;2023-01-10T11:09:57;17.97;;;4.90;;
6438;SDS011;3252;52.540;13.290;2023-01-10T11:12:09;21.67;;;5.00;;
6438;SDS011;3252;52.540;13.290;2023-01-10T11:14:14;17.53;;;5.20;;
6438;SDS011;3252;52.540;13.290;2023-01-10T11:16:26;31.50;;;8.50;;
6438;SDS011;3252;52.540;13.290;2023-01-10T11:18:30;24.80;;;7.30;;
6438;SDS011;3252;52.540;13.290;2023-01-10T11:20:34;19.20;;;6.70;;
6438;SDS011;3252;52.540;13.290;2023-01-10T11:22:38;18.90;;;5.27;;
6438;SDS011;3252;52.540;13.290;2023-01-10T11:24:49;13.03;;;4.33;;
6438;SDS011;3252;52.540;13.290;2023-01-10T11:26:54;18.70;;;4.30;;
6438;SDS011;3252;52.540;13.290;2023-01-10T11:29:02;20.93;;;4.67;;
6438;SDS011;3252;52.540;13.290;2023-01-10T11:31:07;18.23;;;4.53;;
6438;SDS011;3252;52.540;13.290;2023-01-10T11:33:15;16.60;;;4.40;;
6438;SDS011;3252;52.540;13.290;2023-01-10T11:35:22;17.07;;;4.10;;
6438;SDS011;3252;52.540;13.290;2023-01-10T11:37:29;17.70;;;4.07;;
6438;SDS011;3252;52.540;13.290;2023-01-10T11:39:33;16.50;;;4.03;;
6438;SDS011;3252;52.540;13.290;2023-01-10T11:41:35;20.77;;;4.70;;
6438;SDS011;3252;52.540;13.290;2023-01-10T11:43:38;17.17;;;4.20;;
6438;SDS011;3252;52.540;13.290;2023-01-10T11:45:41;15.80;;;4.10;;
6438;SDS011;3252;52.540;13.290;2023-01-10T11:47:44;17.30;;;4.87;;
6438;SDS011;3252;52.540;13.290;2023-01-10T11:49:49;14.57;;;4.20;;
6438;SDS011;3252;52.540;13.290;2023-01-10T11:51:52;15.47;;;4.03;;
6438;SDS011;3252;52.540;13.290;2023-01-10T11:54:00;17.47;;;4.10;;
6438;SDS011;3252;52.540;13.290;2023-01-10T11:56:05;22.43;;;5.13;;
6438;SDS011;3252;52.540;13.290;2023-01-10T11:58:11;20.37;;;5.17;;
6438;SDS011;3252;52.540;13.290;2023-01-10T12:00:15;16.17;;;4.50;;
6438;SDS011;3252;52.540;13.290;2023-01-10T12:02:19;22.10;;;6.63;;
6438;SDS011;3252;52.540;13.290;2023-01-10T12:04:25;14.43;;;5.13;;
6438;SDS011;3252;52.540;13.290;2023-01-10T12:06:29;17.27;;;4.47;;
6438;SDS011;3252;52.540;13.290;2023-01-10T12:08:33;18.73;;;4.57;;
6438;SDS011;3252;52.540;13.290;2023-01-10T12:10:38;17.27;;;3.87;;
6438;SDS011;3252;52.540;13.290;2023-01-10T12:12:42;18.70;;;4.33;;
6438;SDS011;3252;52.540;13.290;2023-01-10T12:14:54;20.57;;;4.67;;
6438;SDS011;3252;52.540;13.290;2023-01-10T12:16:58;14.60;;;3.97;;
6438;SDS011;3252;52.540;13.290;2023-01-10T12:19:03;17.17;;;3.87;;
6438;SDS011;3252;52.540;13.290;2023-01-10T12:21:13;21.20;;;4.83;;
6438;SDS011;3252;52.540;13.290;2023-01-10T12:23:19;17.97;;;4.40;;
6438;SDS011;3252;52.540;13.290;2023-01-10T12:25:26;17.83;;;4.47;;
6438;SDS011;3252;52.540;13.290;2023-01-10T12:27:36;14.33;;;3.90;;
6438;SDS011;3252;52.540;13.290;2023-01-10T12:29:38;21.77;;;4.53;;
6438;SDS011;3252;52.540;13.290;2023-01-10T12:31:43;19.43;;;4.37;;
6438;SDS011;3252;52.540;13.290;2023-01-10T12:33:48;21.80;;;8.73;;
6438;SDS011;3252;52.540;13.290;2023-01-10T12:35:55;21.13;;;5.27;;
6438;SDS011;3252;52.540;13.290;2023-01-10T12:38:03;18.13;;;4.20;;
6438;SDS011;3252;52.540;13.290;2023-01-10T12:40:20;19.00;;;7.30;;
6438;SDS011;3252;52.540;13.290;2023-01-10T12:42:33;20.87;;;4.43;;
6438;SDS011;3252;52.540;13.290;2023-01-10T12:45:04;18.93;;;4.90;;
6438;SDS011;3252;52.540;13.290;2023-01-10T12:47:13;15.20;;;4.00;;
6438;SDS011;3252;52.540;13.290;2023-01-10T12:49:22;21.77;;;4.03;;
6438;SDS011;3252;52.540;13.290;2023-01-10T12:51:26;20.03;;;3.53;;
6438;SDS011;3252;52.540;13.290;2023-01-10T12:53:31;18.83;;;4.00;;
6438;SDS011;3252;52.540;13.290;2023-01-10T12:55:37;19.50;;;4.37;;
6438;SDS011;3252;52.540;13.290;2023-01-10T12:57:43;13.50;;;3.50;;
6438;SDS011;3252;52.540;13.290;2023-01-10T12:59:48;15.10;;;3.47;;
6438;SDS011;3252;52.540;13.290;2023-01-10T13:01:56;18.40;;;3.67;;
6438;SDS011;3252;52.540;13.290;2023-01-10T13:04:02;16.63;;;3.70;;
6438;SDS011;3252;52.540;13.290;2023-01-10T13:08:49;22.23;;;4.00;;
6438;SDS011;3252;52.540;13.290;2023-01-10T13:11:49;20.87;;;4.27;;
6438;SDS011;3252;52.540;13.290;2023-01-10T13:14:45;16.27;;;3.70;;
6438;SDS011;3252;52.540;13.290;2023-01-10T13:19:33;14.77;;;3.53;;
6438;SDS011;3252;52.540;13.290;2023-01-10T13:21:39;20.63;;;3.97;;
6438;SDS011;3252;52.540;13.290;2023-01-10T13:23:47;16.27;;;4.07;;
6438;SDS011;3252;52.540;13.290;2023-01-10T13:25:54;17.77;;;4.50;;
6438;SDS011;3252;52.540;13.290;2023-01-10T13:28:01;11.93;;;3.83;;
6438;SDS011;3252;52.540;13.290;2023-01-10T13:30:21;21.73;;;4.50;;
6438;SDS011;3252;52.540;13.290;2023-01-10T13:32:27;16.77;;;3.97;;
6438;SDS011;3252;52.540;13.290;2023-01-10T13:34:52;21.53;;;4.13;;
6438;SDS011;3252;52.540;13.290;2023-01-10T13:37:30;17.67;;;4.07;;
6438;SDS011;3252;52.540;13.290;2023-01-10T13:39:38;18.10;;;3.83;;
6438;SDS011;3252;52.540;13.290;2023-01-10T13:44:10;15.90;;;3.80;;
6438;SDS011;3252;52.540;13.290;2023-01-10T13:46:40;17.70;;;3.60;;
6438;SDS011;3252;52.540;13.290;2023-01-10T13:51:24;18.23;;;3.70;;
6438;SDS011;3252;52.540;13.290;2023-01-10T13:53:41;15.20;;;3.60;;
6438;SDS011;3252;52.540;13.290;2023-01-10T13:56:00;19.57;;;4.07;;
6438;SDS011;3252;52.540;13.290;2023-01-10T14:01:24;19.73;;;3.77;;
6438;SDS011;3252;52.540;13.290;2023-01-10T14:05:13;18.77;;;3.97;;
6438;SDS011;3252;52.540;13.290;2023-01-10T14:16:30;18.37;;;3.60;;
6438;SDS011;3252;52.540;13.290;2023-01-10T14:18:39;14.30;;;3.40;;
6438;SDS011;3252;52.540;13.290;2023-01-10T14:20:44;13.43;;;3.30;;